sensor_id;sensor_type;location;lat;lon;timestamp;pressure;altitude;pressure_sealevel;temperature;humidity
20755;BME280;26385;48.470;7.938;2022-08-21T00:00:53;100046.00;;;18.45;81.79
20755;BME280;26385;48.470;7.938;2022-08-21T00:03:18;100044.19;;;18.51;81.31
20755;BME280;26385;48.470;7.938;2022-08-21T00:05:48;100045.91;;;18.52;81.68
20755;BME280;26385;48.470;7.938;2022-08-21T00:08:15;100039.03;;;18.44;82.20
20755;BME280;26385;48.470;7.938;2022-08-21T00:10:41;100043.50;;;18.36;82.81
20755;BME280;26385;48.470;7.938;2022-08-21T00:13:07;100054.94;;;18.30;82.64
20755;BME280;26385;48.470;7.938;2022-08-21T00:15:34;100048.53;;;18.52;81.25
20755;BME280;26385;48.470;7.938;2022-08-21T00:18:00;100037.44;;;18.34;81.90
20755;BME280;26385;48.470;7.938;2022-08-21T00:20:26;100040.09;;;18.29;82.00
20755;BME280;26385;48.470;7.938;2022-08-21T00:22:52;100042.81;;;18.21;82.29
20755;BME280;26385;48.470;7.938;2022-08-21T00:25:19;100034.81;;;18.31;81.84
20755;BME280;26385;48.470;7.938;2022-08-21T00:27:45;100044.53;;;18.22;81.51
20755;BME280;26385;48.470;7.938;2022-08-21T00:30:13;100045.38;;;18.27;81.58
20755;BME280;26385;48.470;7.938;2022-08-21T00:32:40;100033.72;;;18.50;80.67
20755;BME280;26385;48.470;7.938;2022-08-21T00:35:08;100034.69;;;18.43;79.71
20755;BME280;26385;48.470;7.938;2022-08-21T00:37:34;100035.50;;;18.46;79.21
20755;BME280;26385;48.470;7.938;2022-08-21T00:39:59;100033.81;;;18.42;79.77
20755;BME280;26385;48.470;7.938;2022-08-21T00:42:25;100037.50;;;18.27;80.76
20755;BME280;26385;48.470;7.938;2022-08-21T00:44:50;100027.09;;;18.20;81.38
20755;BME280;26385;48.470;7.938;2022-08-21T00:47:17;100029.75;;;18.18;81.64
20755;BME280;26385;48.470;7.938;2022-08-21T00:49:43;100029.78;;;18.17;81.85
20755;BME280;26385;48.470;7.938;2022-08-21T00:52:12;100028.00;;;18.16;82.50
20755;BME280;26385;48.470;7.938;2022-08-21T00:54:39;100029.59;;;18.29;81.81
20755;BME280;26385;48.470;7.938;2022-08-21T00:57:10;100019.28;;;18.15;82.13
20755;BME280;26385;48.470;7.938;2022-08-21T00:59:38;100017.34;;;18.31;81.95
20755;BME280;26385;48.470;7.938;2022-08-21T01:02:06;100021.00;;;18.19;82.67
20755;BME280;26385;48.470;7.938;2022-08-21T01:04:32;100013.94;;;18.26;82.85
20755;BME280;26385;48.470;7.938;2022-08-21T01:06:57;100018.09;;;18.39;81.93
20755;BME280;26385;48.470;7.938;2022-08-21T01:09:23;100012.13;;;18.29;82.63
20755;BME280;26385;48.470;7.938;2022-08-21T01:11:48;100011.41;;;18.18;83.23
20755;BME280;26385;48.470;7.938;2022-08-21T01:14:14;100018.59;;;18.03;84.21
20755;BME280;26385;48.470;7.938;2022-08-21T01:16:43;100011.63;;;17.98;84.74
20755;BME280;26385;48.470;7.938;2022-08-21T01:19:10;100013.47;;;17.92;84.72
20755;BME280;26385;48.470;7.938;2022-08-21T01:21:36;100010.06;;;17.82;85.16
20755;BME280;26385;48.470;7.938;2022-08-21T01:24:01;100016.28;;;17.73;85.66
20755;BME280;26385;48.470;7.938;2022-08-21T01:26:30;100017.25;;;17.62;85.42
20755;BME280;26385;48.470;7.938;2022-08-21T01:29:16;100016.47;;;17.54;86.31
20755;BME280;26385;48.470;7.938;2022-08-21T01:31:45;100020.88;;;17.50;86.63
20755;BME280;26385;48.470;7.938;2022-08-21T01:34:11;100019.75;;;17.77;84.98
20755;BME280;26385;48.470;7.938;2022-08-21T01:36:37;100016.97;;;17.91;83.54
20755;BME280;26385;48.470;7.938;2022-08-21T01:39:04;100020.53;;;17.82;84.47
20755;BME280;26385;48.470;7.938;2022-08-21T01:41:30;100017.22;;;17.65;85.08
20755;BME280;26385;48.470;7.938;2022-08-21T01:43:55;100020.00;;;17.50;85.60
20755;BME280;26385;48.470;7.938;2022-08-21T01:46:20;100015.69;;;17.44;86.56
20755;BME280;26385;48.470;7.938;2022-08-21T01:48:45;100022.63;;;17.47;86.46
20755;BME280;26385;48.470;7.938;2022-08-21T01:51:11;100018.34;;;17.39;86.83
20755;BME280;26385;48.470;7.938;2022-08-21T01:53:37;100022.06;;;17.15;88.19
20755;BME280;26385;48.470;7.938;2022-08-21T01:56:06;100014.97;;;17.28;87.55
20755;BME280;26385;48.470;7.938;2022-08-21T01:58:32;100008.91;;;17.20;87.64
20755;BME280;26385;48.470;7.938;2022-08-21T02:00:59;100004.47;;;17.30;87.31
20755;BME280;26385;48.470;7.938;2022-08-21T02:03:24;100009.81;;;17.19;87.53
20755;BME280;26385;48.470;7.938;2022-08-21T02:05:49;100007.81;;;17.45;85.91
20755;BME280;26385;48.470;7.938;2022-08-21T02:08:15;100003.47;;;17.43;86.71
20755;BME280;26385;48.470;7.938;2022-08-21T02:10:40;100005.09;;;17.55;85.76
20755;BME280;26385;48.470;7.938;2022-08-21T02:13:06;100009.59;;;17.42;85.78
20755;BME280;26385;48.470;7.938;2022-08-21T02:15:32;100002.84;;;17.16;87.41
20755;BME280;26385;48.470;7.938;2022-08-21T02:18:00;100007.22;;;17.14;87.64
20755;BME280;26385;48.470;7.938;2022-08-21T02:20:32;100003.56;;;17.35;86.26
20755;BME280;26385;48.470;7.938;2022-08-21T02:22:58;99996.41;;;17.51;85.18
20755;BME280;26385;48.470;7.938;2022-08-21T02:25:25;99986.84;;;17.50;84.01
20755;BME280;26385;48.470;7.938;2022-08-21T02:27:52;99988.56;;;17.48;84.85
20755;BME280;26385;48.470;7.938;2022-08-21T02:30:26;99999.91;;;17.49;84.11
20755;BME280;26385;48.470;7.938;2022-08-21T02:32:52;100002.69;;;17.32;85.42
20755;BME280;26385;48.470;7.938;2022-08-21T02:35:17;99993.31;;;17.11;86.71
20755;BME280;26385;48.470;7.938;2022-08-21T02:37:49;99992.34;;;17.20;87.36
20755;BME280;26385;48.470;7.938;2022-08-21T02:40:15;99994.13;;;17.14;87.05
20755;BME280;26385;48.470;7.938;2022-08-21T02:42:41;99994.16;;;17.11;87.31
20755;BME280;26385;48.470;7.938;2022-08-21T02:45:08;99997.78;;;16.95;87.87
20755;BME280;26385;48.470;7.938;2022-08-21T02:47:34;99996.09;;;16.86;88.36
20755;BME280;26385;48.470;7.938;2022-08-21T02:49:59;99992.53;;;16.97;87.70
20755;BME280;26385;48.470;7.938;2022-08-21T02:52:24;99990.66;;;17.12;86.75
20755;BME280;26385;48.470;7.938;2022-08-21T02:54:49;99992.41;;;17.12;86.22
20755;BME280;26385;48.470;7.938;2022-08-21T02:57:15;99989.06;;;16.99;86.00
20755;BME280;26385;48.470;7.938;2022-08-21T02:59:40;99989.84;;;17.07;86.05
20755;BME280;26385;48.470;7.938;2022-08-21T03:02:06;99995.94;;;17.09;85.97
20755;BME280;26385;48.470;7.938;2022-08-21T03:04:31;99988.03;;;17.17;85.27
20755;BME280;26385;48.470;7.938;2022-08-21T03:06:57;99996.06;;;16.94;86.68
20755;BME280;26385;48.470;7.938;2022-08-21T03:09:22;99987.19;;;17.10;85.90
20755;BME280;26385;48.470;7.938;2022-08-21T03:11:50;99990.78;;;17.00;86.38
20755;BME280;26385;48.470;7.938;2022-08-21T03:14:16;99989.81;;;17.10;86.03
20755;BME280;26385;48.470;7.938;2022-08-21T03:16:41;99988.09;;;17.06;85.97
20755;BME280;26385;48.470;7.938;2022-08-21T03:19:07;99989.00;;;17.02;86.07
20755;BME280;26385;48.470;7.938;2022-08-21T03:21:33;99985.59;;;16.94;87.89
20755;BME280;26385;48.470;7.938;2022-08-21T03:23:58;99984.56;;;17.12;85.72
20755;BME280;26385;48.470;7.938;2022-08-21T03:26:24;99983.59;;;17.21;84.99
20755;BME280;26385;48.470;7.938;2022-08-21T03:28:49;99979.31;;;17.12;85.39
20755;BME280;26385;48.470;7.938;2022-08-21T03:31:15;99975.97;;;16.96;86.33
20755;BME280;26385;48.470;7.938;2022-08-21T03:33:42;99984.75;;;16.92;86.76
20755;BME280;26385;48.470;7.938;2022-08-21T03:36:07;99976.81;;;17.01;86.33
20755;BME280;26385;48.470;7.938;2022-08-21T03:38:34;99981.31;;;16.85;86.06
20755;BME280;26385;48.470;7.938;2022-08-21T03:41:01;99979.69;;;16.66;87.37
20755;BME280;26385;48.470;7.938;2022-08-21T03:43:27;99984.88;;;16.71;87.68
20755;BME280;26385;48.470;7.938;2022-08-21T03:45:53;99978.59;;;16.95;86.19
20755;BME280;26385;48.470;7.938;2022-08-21T03:48:18;99976.03;;;16.92;86.20
20755;BME280;26385;48.470;7.938;2022-08-21T03:50:44;99981.00;;;17.19;84.99
20755;BME280;26385;48.470;7.938;2022-08-21T03:53:13;99977.66;;;17.03;84.98
20755;BME280;26385;48.470;7.938;2022-08-21T03:55:39;99988.38;;;16.68;86.41
20755;BME280;26385;48.470;7.938;2022-08-21T03:58:04;99985.81;;;16.60;87.64
20755;BME280;26385;48.470;7.938;2022-08-21T04:00:30;99992.72;;;16.74;86.87
20755;BME280;26385;48.470;7.938;2022-08-21T04:02:55;99994.56;;;16.52;87.64
20755;BME280;26385;48.470;7.938;2022-08-21T04:05:21;99991.06;;;16.57;88.20
20755;BME280;26385;48.470;7.938;2022-08-21T04:07:58;99985.00;;;16.48;87.81
20755;BME280;26385;48.470;7.938;2022-08-21T04:10:25;99991.88;;;16.70;87.38
20755;BME280;26385;48.470;7.938;2022-08-21T04:12:52;99995.44;;;16.57;87.97
20755;BME280;26385;48.470;7.938;2022-08-21T04:15:18;99992.72;;;16.68;86.51
20755;BME280;26385;48.470;7.938;2022-08-21T04:17:44;100002.31;;;16.75;86.52
20755;BME280;26385;48.470;7.938;2022-08-21T04:20:09;100001.44;;;16.73;85.85
20755;BME280;26385;48.470;7.938;2022-08-21T04:22:34;99999.78;;;16.53;86.74
20755;BME280;26385;48.470;7.938;2022-08-21T04:25:00;100008.56;;;16.43;87.83
20755;BME280;26385;48.470;7.938;2022-08-21T04:27:25;99999.00;;;16.42;87.93
20755;BME280;26385;48.470;7.938;2022-08-21T04:29:50;100002.41;;;16.52;87.40
20755;BME280;26385;48.470;7.938;2022-08-21T04:32:23;99999.91;;;16.35;88.92
20755;BME280;26385;48.470;7.938;2022-08-21T04:34:48;100004.34;;;16.19;89.16
20755;BME280;26385;48.470;7.938;2022-08-21T04:37:14;100009.56;;;16.13;90.11
20755;BME280;26385;48.470;7.938;2022-08-21T04:39:41;100013.84;;;16.34;88.38
20755;BME280;26385;48.470;7.938;2022-08-21T04:42:06;100017.28;;;16.39;87.97
20755;BME280;26385;48.470;7.938;2022-08-21T04:44:32;100015.66;;;16.23;89.18
20755;BME280;26385;48.470;7.938;2022-08-21T04:46:57;100020.00;;;16.19;89.35
20755;BME280;26385;48.470;7.938;2022-08-21T04:49:23;100020.91;;;16.14;89.66
20755;BME280;26385;48.470;7.938;2022-08-21T04:51:49;100017.41;;;16.13;89.30
20755;BME280;26385;48.470;7.938;2022-08-21T04:54:19;100019.16;;;16.13;89.56
20755;BME280;26385;48.470;7.938;2022-08-21T04:59:17;100021.66;;;16.37;87.79
20755;BME280;26385;48.470;7.938;2022-08-21T05:01:44;100020.78;;;16.38;87.76
20755;BME280;26385;48.470;7.938;2022-08-21T05:04:13;100027.84;;;16.21;88.74
20755;BME280;26385;48.470;7.938;2022-08-21T05:06:40;100020.88;;;16.20;88.98
20755;BME280;26385;48.470;7.938;2022-08-21T05:09:07;100027.06;;;15.99;89.60
20755;BME280;26385;48.470;7.938;2022-08-21T05:11:34;100026.19;;;16.06;89.79
20755;BME280;26385;48.470;7.938;2022-08-21T05:14:00;100024.31;;;16.28;88.39
20755;BME280;26385;48.470;7.938;2022-08-21T05:16:26;100029.53;;;16.31;88.08
20755;BME280;26385;48.470;7.938;2022-08-21T05:18:51;100023.47;;;16.26;88.30
20755;BME280;26385;48.470;7.938;2022-08-21T05:21:17;100020.91;;;16.14;88.72
20755;BME280;26385;48.470;7.938;2022-08-21T05:23:42;100023.56;;;16.03;89.62
20755;BME280;26385;48.470;7.938;2022-08-21T05:26:07;100022.66;;;16.12;88.85
20755;BME280;26385;48.470;7.938;2022-08-21T05:28:33;100026.09;;;16.20;88.74
20755;BME280;26385;48.470;7.938;2022-08-21T05:30:58;100025.16;;;16.35;87.41
20755;BME280;26385;48.470;7.938;2022-08-21T05:33:24;100029.50;;;16.42;86.57
20755;BME280;26385;48.470;7.938;2022-08-21T05:35:54;100029.53;;;16.31;88.06
20755;BME280;26385;48.470;7.938;2022-08-21T05:38:21;100033.00;;;16.36;87.63
20755;BME280;26385;48.470;7.938;2022-08-21T05:40:46;100034.72;;;16.39;87.34
20755;BME280;26385;48.470;7.938;2022-08-21T05:43:11;100039.94;;;16.39;87.47
20755;BME280;26385;48.470;7.938;2022-08-21T05:45:37;100034.75;;;16.31;88.06
20755;BME280;26385;48.470;7.938;2022-08-21T05:48:11;100025.03;;;16.56;87.34
20755;BME280;26385;48.470;7.938;2022-08-21T05:50:37;100017.28;;;16.48;86.53
20755;BME280;26385;48.470;7.938;2022-08-21T05:53:03;100033.69;;;16.72;85.94
20755;BME280;26385;48.470;7.938;2022-08-21T05:55:29;100029.09;;;17.04;84.70
20755;BME280;26385;48.470;7.938;2022-08-21T05:57:54;100032.53;;;17.15;83.53
20755;BME280;26385;48.470;7.938;2022-08-21T06:00:19;100028.09;;;17.25;82.69
20755;BME280;26385;48.470;7.938;2022-08-21T06:02:45;100035.94;;;17.24;82.50
20755;BME280;26385;48.470;7.938;2022-08-21T06:05:10;100040.13;;;17.43;81.53
20755;BME280;26385;48.470;7.938;2022-08-21T06:07:35;100033.06;;;17.51;80.97
20755;BME280;26385;48.470;7.938;2022-08-21T06:10:00;100033.16;;;17.43;80.76
20755;BME280;26385;48.470;7.938;2022-08-21T06:12:26;100034.72;;;17.61;80.66
20755;BME280;26385;48.470;7.938;2022-08-21T06:14:51;100038.09;;;17.77;79.79
20755;BME280;26385;48.470;7.938;2022-08-21T06:17:17;100030.09;;;17.88;79.07
20755;BME280;26385;48.470;7.938;2022-08-21T06:19:43;100030.34;;;18.39;77.24
20755;BME280;26385;48.470;7.938;2022-08-21T06:22:08;100033.81;;;18.41;76.50
20755;BME280;26385;48.470;7.938;2022-08-21T06:24:34;100031.81;;;18.58;75.22
20755;BME280;26385;48.470;7.938;2022-08-21T06:27:05;100030.94;;;18.57;74.91
20755;BME280;26385;48.470;7.938;2022-08-21T06:29:30;100032.69;;;18.60;74.83
20755;BME280;26385;48.470;7.938;2022-08-21T06:31:55;100030.88;;;18.64;74.36
20755;BME280;26385;48.470;7.938;2022-08-21T06:34:21;100032.13;;;18.98;73.95
20755;BME280;26385;48.470;7.938;2022-08-21T06:36:46;100034.88;;;18.91;72.84
20755;BME280;26385;48.470;7.938;2022-08-21T06:39:11;100037.34;;;19.00;73.21
20755;BME280;26385;48.470;7.938;2022-08-21T06:41:38;100030.75;;;18.76;73.46
20755;BME280;26385;48.470;7.938;2022-08-21T06:44:03;100035.81;;;18.87;74.17
20755;BME280;26385;48.470;7.938;2022-08-21T06:46:29;100031.84;;;19.18;72.61
20755;BME280;26385;48.470;7.938;2022-08-21T06:48:55;100025.72;;;19.67;70.59
20755;BME280;26385;48.470;7.938;2022-08-21T06:51:21;100028.03;;;19.84;69.67
20755;BME280;26385;48.470;7.938;2022-08-21T06:53:47;100030.59;;;19.88;69.23
20755;BME280;26385;48.470;7.938;2022-08-21T06:56:13;100027.88;;;19.91;69.22
20755;BME280;26385;48.470;7.938;2022-08-21T06:58:38;100033.00;;;19.99;68.41
20755;BME280;26385;48.470;7.938;2022-08-21T07:01:04;100037.84;;;20.20;67.67
20755;BME280;26385;48.470;7.938;2022-08-21T07:03:33;100033.06;;;20.39;68.96
20755;BME280;26385;48.470;7.938;2022-08-21T07:05:58;100036.47;;;20.46;66.42
20755;BME280;26385;48.470;7.938;2022-08-21T07:08:25;100030.19;;;20.51;65.82
20755;BME280;26385;48.470;7.938;2022-08-21T07:10:52;100034.03;;;21.13;67.31
20755;BME280;26385;48.470;7.938;2022-08-21T07:13:18;100026.41;;;21.38;65.00
20755;BME280;26385;48.470;7.938;2022-08-21T07:15:44;100024.25;;;21.52;63.05
20755;BME280;26385;48.470;7.938;2022-08-21T07:18:10;100027.81;;;21.51;64.14
20755;BME280;26385;48.470;7.938;2022-08-21T07:20:36;100023.41;;;21.84;62.95
20755;BME280;26385;48.470;7.938;2022-08-21T07:23:06;100019.94;;;22.14;61.42
20755;BME280;26385;48.470;7.938;2022-08-21T07:25:32;100028.56;;;22.19;61.05
20755;BME280;26385;48.470;7.938;2022-08-21T07:27:58;100018.38;;;22.38;61.26
20755;BME280;26385;48.470;7.938;2022-08-21T07:30:23;100015.31;;;22.23;60.72
20755;BME280;26385;48.470;7.938;2022-08-21T07:32:49;100018.94;;;22.48;60.05
20755;BME280;26385;48.470;7.938;2022-08-21T07:35:17;100016.97;;;22.83;59.67
20755;BME280;26385;48.470;7.938;2022-08-21T07:37:42;100016.53;;;22.98;59.05
20755;BME280;26385;48.470;7.938;2022-08-21T07:40:08;100014.44;;;23.08;58.42
20755;BME280;26385;48.470;7.938;2022-08-21T07:42:33;100012.38;;;23.42;57.59
20755;BME280;26385;48.470;7.938;2022-08-21T07:44:58;100009.66;;;23.70;56.99
20755;BME280;26385;48.470;7.938;2022-08-21T07:47:24;100007.91;;;23.94;56.18
20755;BME280;26385;48.470;7.938;2022-08-21T07:49:49;100011.63;;;24.13;55.53
20755;BME280;26385;48.470;7.938;2022-08-21T07:52:14;100009.00;;;24.13;54.48
20755;BME280;26385;48.470;7.938;2022-08-21T07:54:40;100004.38;;;24.19;54.28
20755;BME280;26385;48.470;7.938;2022-08-21T07:57:05;100012.09;;;24.25;54.13
20755;BME280;26385;48.470;7.938;2022-08-21T07:59:30;100005.59;;;24.33;53.74
20755;BME280;26385;48.470;7.938;2022-08-21T08:01:56;100005.31;;;24.41;53.18
20755;BME280;26385;48.470;7.938;2022-08-21T08:04:21;100003.88;;;24.56;52.90
20755;BME280;26385;48.470;7.938;2022-08-21T08:06:47;100004.28;;;24.67;52.22
20755;BME280;26385;48.470;7.938;2022-08-21T08:09:12;100006.81;;;24.70;51.76
20755;BME280;26385;48.470;7.938;2022-08-21T08:11:39;100001.41;;;24.73;51.41
20755;BME280;26385;48.470;7.938;2022-08-21T08:14:05;99995.81;;;24.81;50.64
20755;BME280;26385;48.470;7.938;2022-08-21T08:16:31;99990.16;;;24.88;50.47
20755;BME280;26385;48.470;7.938;2022-08-21T08:18:56;99992.31;;;25.01;49.85
20755;BME280;26385;48.470;7.938;2022-08-21T08:21:21;99989.50;;;25.05;49.41
20755;BME280;26385;48.470;7.938;2022-08-21T08:23:47;99985.09;;;25.06;49.15
20755;BME280;26385;48.470;7.938;2022-08-21T08:26:12;99985.81;;;25.09;49.24
20755;BME280;26385;48.470;7.938;2022-08-21T08:28:38;99982.16;;;25.12;48.76
20755;BME280;26385;48.470;7.938;2022-08-21T08:31:03;99976.63;;;25.18;48.78
20755;BME280;26385;48.470;7.938;2022-08-21T08:33:29;99985.09;;;25.26;48.38
20755;BME280;26385;48.470;7.938;2022-08-21T08:35:54;99975.41;;;25.45;48.25
20755;BME280;26385;48.470;7.938;2022-08-21T08:38:21;99978.06;;;25.66;47.97
20755;BME280;26385;48.470;7.938;2022-08-21T08:41:13;99976.75;;;25.76;47.82
20755;BME280;26385;48.470;7.938;2022-08-21T08:43:41;99972.34;;;25.95;47.46
20755;BME280;26385;48.470;7.938;2022-08-21T08:46:12;99977.03;;;26.09;46.96
20755;BME280;26385;48.470;7.938;2022-08-21T08:48:47;99971.91;;;26.23;46.16
20755;BME280;26385;48.470;7.938;2022-08-21T08:51:21;99965.06;;;26.38;46.03
20755;BME280;26385;48.470;7.938;2022-08-21T08:53:52;99968.88;;;26.51;45.23
20755;BME280;26385;48.470;7.938;2022-08-21T08:56:27;99970.91;;;26.63;45.00
20755;BME280;26385;48.470;7.938;2022-08-21T08:58:56;99955.22;;;26.59;43.38
20755;BME280;26385;48.470;7.938;2022-08-21T09:01:23;99952.59;;;26.76;44.24
20755;BME280;26385;48.470;7.938;2022-08-21T09:03:49;99953.47;;;26.94;43.77
20755;BME280;26385;48.470;7.938;2022-08-21T09:09:36;99951.03;;;27.26;41.59
20755;BME280;26385;48.470;7.938;2022-08-21T09:12:14;99935.84;;;27.28;41.00
20755;BME280;26385;48.470;7.938;2022-08-21T09:14:49;99936.84;;;27.42;40.66
20755;BME280;26385;48.470;7.938;2022-08-21T09:17:27;99929.06;;;27.55;40.30
20755;BME280;26385;48.470;7.938;2022-08-21T09:20:07;99930.94;;;27.70;40.01
20755;BME280;26385;48.470;7.938;2022-08-21T09:23:00;99923.84;;;27.87;39.89
20755;BME280;26385;48.470;7.938;2022-08-21T09:25:43;99926.03;;;28.12;39.47
20755;BME280;26385;48.470;7.938;2022-08-21T09:28:11;99923.91;;;28.34;38.93
20755;BME280;26385;48.470;7.938;2022-08-21T09:30:40;99913.41;;;28.47;38.02
20755;BME280;26385;48.470;7.938;2022-08-21T09:33:07;99916.31;;;28.58;38.40
20755;BME280;26385;48.470;7.938;2022-08-21T09:35:32;99910.09;;;28.73;38.00
20755;BME280;26385;48.470;7.938;2022-08-21T09:38:05;99911.19;;;28.85;37.90
20755;BME280;26385;48.470;7.938;2022-08-21T09:40:35;99909.91;;;28.92;37.70
20755;BME280;26385;48.470;7.938;2022-08-21T09:45:35;99906.47;;;29.20;37.33
20755;BME280;26385;48.470;7.938;2022-08-21T09:48:24;99910.41;;;29.43;37.92
20755;BME280;26385;48.470;7.938;2022-08-21T09:50:51;99916.97;;;29.37;37.32
20755;BME280;26385;48.470;7.938;2022-08-21T09:53:28;99909.81;;;29.38;37.27
20755;BME280;26385;48.470;7.938;2022-08-21T09:56:00;99912.25;;;29.57;37.05
20755;BME280;26385;48.470;7.938;2022-08-21T09:58:48;99904.31;;;29.84;36.66
20755;BME280;26385;48.470;7.938;2022-08-21T10:01:22;99900.38;;;30.04;35.92
20755;BME280;26385;48.470;7.938;2022-08-21T10:03:48;99898.47;;;30.06;35.31
20755;BME280;26385;48.470;7.938;2022-08-21T10:06:25;99903.47;;;30.12;36.02
20755;BME280;26385;48.470;7.938;2022-08-21T10:09:09;99894.63;;;30.24;35.69
20755;BME280;26385;48.470;7.938;2022-08-21T10:11:35;99893.25;;;30.45;35.79
20755;BME280;26385;48.470;7.938;2022-08-21T10:14:23;99886.88;;;30.61;36.16
20755;BME280;26385;48.470;7.938;2022-08-21T10:17:07;99886.66;;;30.78;34.24
20755;BME280;26385;48.470;7.938;2022-08-21T10:22:27;99878.97;;;30.99;34.81
20755;BME280;26385;48.470;7.938;2022-08-21T10:25:18;99874.91;;;31.19;35.08
20755;BME280;26385;48.470;7.938;2022-08-21T10:27:51;99875.69;;;31.33;35.11
20755;BME280;26385;48.470;7.938;2022-08-21T10:33:16;99867.66;;;31.21;33.81
20755;BME280;26385;48.470;7.938;2022-08-21T10:35:55;99866.16;;;31.42;34.17
20755;BME280;26385;48.470;7.938;2022-08-21T10:38:44;99859.09;;;31.54;33.37
20755;BME280;26385;48.470;7.938;2022-08-21T10:41:37;99865.09;;;31.70;33.19
20755;BME280;26385;48.470;7.938;2022-08-21T10:44:44;99862.63;;;31.80;33.06
20755;BME280;26385;48.470;7.938;2022-08-21T10:47:34;99871.72;;;31.77;32.40
20755;BME280;26385;48.470;7.938;2022-08-21T10:50:22;99867.44;;;31.62;32.18
20755;BME280;26385;48.470;7.938;2022-08-21T10:55:30;99863.25;;;31.83;33.23
20755;BME280;26385;48.470;7.938;2022-08-21T10:58:05;99865.06;;;31.96;32.54
20755;BME280;26385;48.470;7.938;2022-08-21T11:03:16;99861.09;;;31.88;32.46
20755;BME280;26385;48.470;7.938;2022-08-21T11:05:48;99861.34;;;32.09;31.98
20755;BME280;26385;48.470;7.938;2022-08-21T11:08:40;99851.31;;;32.24;32.46
20755;BME280;26385;48.470;7.938;2022-08-21T11:11:18;99844.84;;;32.39;31.86
20755;BME280;26385;48.470;7.938;2022-08-21T11:13:49;99838.56;;;32.52;31.45
20755;BME280;26385;48.470;7.938;2022-08-21T11:16:26;99844.28;;;32.47;31.48
20755;BME280;26385;48.470;7.938;2022-08-21T11:19:09;99837.53;;;32.41;31.20
20755;BME280;26385;48.470;7.938;2022-08-21T11:21:48;99837.94;;;32.48;30.84
20755;BME280;26385;48.470;7.938;2022-08-21T11:24:44;99834.31;;;32.60;30.90
20755;BME280;26385;48.470;7.938;2022-08-21T11:27:36;99828.16;;;32.71;30.54
20755;BME280;26385;48.470;7.938;2022-08-21T11:30:06;99829.03;;;32.83;30.19
20755;BME280;26385;48.470;7.938;2022-08-21T11:43:38;99810.41;;;32.92;29.26
20755;BME280;26385;48.470;7.938;2022-08-21T11:46:23;99806.66;;;33.06;29.59
20755;BME280;26385;48.470;7.938;2022-08-21T11:48:59;99804.59;;;33.10;29.64
20755;BME280;26385;48.470;7.938;2022-08-21T11:51:53;99808.50;;;33.06;29.63
20755;BME280;26385;48.470;7.938;2022-08-21T11:57:09;99798.38;;;33.09;29.87
20755;BME280;26385;48.470;7.938;2022-08-21T11:59:46;99791.53;;;33.27;29.59
20755;BME280;26385;48.470;7.938;2022-08-21T12:02:18;99791.31;;;33.30;28.77
20755;BME280;26385;48.470;7.938;2022-08-21T12:04:52;99786.16;;;32.94;28.79
20755;BME280;26385;48.470;7.938;2022-08-21T12:10:00;99778.69;;;32.86;27.92
20755;BME280;26385;48.470;7.938;2022-08-21T12:12:31;99771.72;;;32.84;28.35
20755;BME280;26385;48.470;7.938;2022-08-21T12:20:57;99777.06;;;32.84;30.47
20755;BME280;26385;48.470;7.938;2022-08-21T12:23:30;99773.44;;;32.96;27.92
20755;BME280;26385;48.470;7.938;2022-08-21T12:28:26;99772.50;;;33.08;27.46
20755;BME280;26385;48.470;7.938;2022-08-21T12:30:52;99773.59;;;33.17;27.17
20755;BME280;26385;48.470;7.938;2022-08-21T12:33:20;99777.66;;;33.22;26.52
20755;BME280;26385;48.470;7.938;2022-08-21T12:35:47;99778.25;;;32.68;26.28
20755;BME280;26385;48.470;7.938;2022-08-21T12:39:15;99769.63;;;32.76;26.94
20755;BME280;26385;48.470;7.938;2022-08-21T12:41:20;99767.88;;;32.88;27.11
20755;BME280;26385;48.470;7.938;2022-08-21T12:43:54;99763.72;;;33.06;27.86
20755;BME280;26385;48.470;7.938;2022-08-21T12:46:27;99758.59;;;33.14;28.82
20755;BME280;26385;48.470;7.938;2022-08-21T12:48:58;99756.41;;;33.30;28.11
20755;BME280;26385;48.470;7.938;2022-08-21T12:51:32;99756.69;;;33.39;28.15
20755;BME280;26385;48.470;7.938;2022-08-21T12:54:00;99768.59;;;33.46;27.11
20755;BME280;26385;48.470;7.938;2022-08-21T12:56:28;99761.06;;;33.40;26.81
20755;BME280;26385;48.470;7.938;2022-08-21T12:58:56;99751.50;;;33.36;27.05
20755;BME280;26385;48.470;7.938;2022-08-21T13:01:36;99753.34;;;33.57;27.45
20755;BME280;26385;48.470;7.938;2022-08-21T13:04:08;99753.09;;;33.72;27.84
20755;BME280;26385;48.470;7.938;2022-08-21T13:06:40;99745.63;;;33.75;27.60
20755;BME280;26385;48.470;7.938;2022-08-21T13:09:13;99756.72;;;33.82;27.15
20755;BME280;26385;48.470;7.938;2022-08-21T13:11:41;99751.38;;;33.59;25.67
20755;BME280;26385;48.470;7.938;2022-08-21T13:14:23;99752.00;;;33.52;25.52
20755;BME280;26385;48.470;7.938;2022-08-21T13:16:54;99745.38;;;33.67;26.16
20755;BME280;26385;48.470;7.938;2022-08-21T13:19:20;99737.47;;;33.66;26.61
20755;BME280;26385;48.470;7.938;2022-08-21T13:21:45;99738.19;;;33.68;27.17
20755;BME280;26385;48.470;7.938;2022-08-21T13:24:33;99733.69;;;33.57;27.15
20755;BME280;26385;48.470;7.938;2022-08-21T13:27:00;99733.94;;;33.54;26.98
20755;BME280;26385;48.470;7.938;2022-08-21T13:29:33;99731.84;;;33.35;27.24
20755;BME280;26385;48.470;7.938;2022-08-21T13:32:04;99732.13;;;33.32;26.87
20755;BME280;26385;48.470;7.938;2022-08-21T13:34:36;99731.75;;;33.37;25.59
20755;BME280;26385;48.470;7.938;2022-08-21T13:37:07;99732.50;;;33.39;26.71
20755;BME280;26385;48.470;7.938;2022-08-21T13:39:33;99730.69;;;33.39;27.01
20755;BME280;26385;48.470;7.938;2022-08-21T13:42:01;99723.47;;;33.40;27.02
20755;BME280;26385;48.470;7.938;2022-08-21T13:46:56;99708.53;;;33.36;26.82
20755;BME280;26385;48.470;7.938;2022-08-21T13:49:29;99711.75;;;33.41;27.73
20755;BME280;26385;48.470;7.938;2022-08-21T13:51:55;99704.03;;;33.36;27.19